createdAt,value
2023-01-11T00:01:02.675Z,4.00
2023-01-11T00:03:31.040Z,3.85
2023-01-11T00:05:59.975Z,3.75
2023-01-11T00:08:28.460Z,4.04
2023-01-11T00:10:57.444Z,4.28
2023-01-11T00:13:24.972Z,4.16
2023-01-11T00:15:52.532Z,4.34
2023-01-11T00:18:20.043Z,4.38
2023-01-11T00:20:47.576Z,4.50
2023-01-11T00:23:15.130Z,4.69
2023-01-11T00:25:42.607Z,4.64
2023-01-11T00:28:11.428Z,4.60
2023-01-11T00:30:38.939Z,4.40
2023-01-11T00:33:06.442Z,4.12
2023-01-11T00:35:34.117Z,3.78
2023-01-11T00:38:01.662Z,4.11
2023-01-11T00:40:29.146Z,4.01
2023-01-11T00:43:13.474Z,4.08
2023-01-11T00:45:59.970Z,4.22
2023-01-11T00:48:27.531Z,4.43
2023-01-11T00:50:57.962Z,4.59
2023-01-11T00:53:25.472Z,4.47
2023-01-11T00:55:52.959Z,4.47
2023-01-11T00:58:20.494Z,4.49
2023-01-11T01:00:49.351Z,4.48
2023-01-11T01:03:16.868Z,4.58
2023-01-11T01:05:44.353Z,4.62
2023-01-11T01:08:11.829Z,4.67
2023-01-11T01:10:39.340Z,4.43
2023-01-11T01:13:24.588Z,4.24
2023-01-11T01:15:59.095Z,4.31
2023-01-11T01:18:26.607Z,4.31
2023-01-11T01:20:54.108Z,4.13
2023-01-11T01:23:21.578Z,3.75
2023-01-11T01:25:49.123Z,3.37
2023-01-11T01:28:18.775Z,3.27
2023-01-11T01:30:51.204Z,3.20
2023-01-11T01:33:20.259Z,3.21
2023-01-11T01:35:47.725Z,3.13
2023-01-11T01:38:15.407Z,3.21
2023-01-11T01:40:43.866Z,3.22
2023-01-11T01:43:12.853Z,3.00
2023-01-11T01:45:41.406Z,3.10
2023-01-11T01:48:11.363Z,3.16
2023-01-11T01:50:44.553Z,2.96
2023-01-11T01:53:15.590Z,2.94
2023-01-11T01:55:48.870Z,3.19
2023-01-11T01:58:20.018Z,3.21
2023-01-11T02:00:48.097Z,3.35
2023-01-11T02:03:20.250Z,3.37
2023-01-11T02:05:49.766Z,3.51
2023-01-11T02:08:23.808Z,3.47
2023-01-11T02:10:52.956Z,3.44
2023-01-11T02:13:21.706Z,3.71
2023-01-11T02:16:07.385Z,3.79
2023-01-11T02:18:35.620Z,4.00
2023-01-11T02:21:20.790Z,3.84
2023-01-11T02:24:29.728Z,3.68
2023-01-11T02:27:29.412Z,3.82
2023-01-11T02:30:08.900Z,3.76
2023-01-11T02:32:46.756Z,3.52
2023-01-11T02:35:21.543Z,3.72
2023-01-11T02:38:00.296Z,4.12
2023-01-11T02:40:38.163Z,4.09
2023-01-11T02:43:29.863Z,4.03
2023-01-11T02:46:03.033Z,4.10
2023-01-11T02:48:36.024Z,4.10
2023-01-11T02:51:09.405Z,4.13
2023-01-11T02:53:40.172Z,4.00
2023-01-11T02:56:12.339Z,3.76
2023-01-11T02:58:43.186Z,3.84
2023-01-11T03:01:13.594Z,3.88
2023-01-11T03:03:41.290Z,4.13
2023-01-11T03:06:16.149Z,3.69
2023-01-11T03:09:12.734Z,3.78
2023-01-11T03:12:11.458Z,3.37
2023-01-11T03:14:48.628Z,3.30
2023-01-11T03:17:27.689Z,3.41
2023-01-11T03:20:02.518Z,3.53
2023-01-11T03:22:37.260Z,3.56
2023-01-11T03:25:14.997Z,3.71
2023-01-11T03:27:51.544Z,3.72
2023-01-11T03:30:29.874Z,3.51
2023-01-11T03:33:04.691Z,3.43
2023-01-11T03:35:39.465Z,3.28
2023-01-11T03:38:11.315Z,3.15
2023-01-11T03:40:42.188Z,3.10
2023-01-11T03:43:12.576Z,2.64
2023-01-11T03:45:46.468Z,2.58
2023-01-11T03:48:18.921Z,2.82
2023-01-11T03:50:48.513Z,2.80
2023-01-11T03:53:19.189Z,2.95
2023-01-11T03:55:49.856Z,3.10
2023-01-11T03:58:17.461Z,3.53
2023-01-11T04:00:45.418Z,3.93
2023-01-11T04:03:14.624Z,3.81
2023-01-11T04:05:48.882Z,3.46
2023-01-11T04:08:16.411Z,4.19
2023-01-11T04:10:43.917Z,3.93
2023-01-11T04:13:11.415Z,3.58
2023-01-11T04:15:38.931Z,3.99
2023-01-11T04:18:07.199Z,4.50
2023-01-11T04:20:36.046Z,4.55
2023-01-11T04:23:06.569Z,4.78
2023-01-11T04:25:34.139Z,4.52
2023-01-11T04:28:01.680Z,4.32
2023-01-11T04:30:29.185Z,4.10
2023-01-11T04:32:58.405Z,3.77
2023-01-11T04:35:26.066Z,3.57
2023-01-11T04:37:54.827Z,3.66
2023-01-11T04:40:25.429Z,3.50
2023-01-11T04:42:52.018Z,3.44
2023-01-11T04:45:19.645Z,3.42
2023-01-11T04:47:47.176Z,3.27
2023-01-11T04:50:14.715Z,3.55
2023-01-11T04:52:42.245Z,3.88
2023-01-11T04:55:10.382Z,3.65
2023-01-11T04:57:39.242Z,3.60
2023-01-11T05:00:10.679Z,3.55
2023-01-11T05:02:38.242Z,3.63
2023-01-11T05:05:06.837Z,3.92
2023-01-11T05:07:34.511Z,3.97
2023-01-11T05:10:02.814Z,3.76
2023-01-11T05:12:30.300Z,3.82
2023-01-11T05:14:59.216Z,3.73
2023-01-11T05:17:26.735Z,4.01
2023-01-11T05:19:54.234Z,3.97
2023-01-11T05:22:21.725Z,4.12
2023-01-11T05:24:49.234Z,4.09
2023-01-11T05:27:16.704Z,3.97
2023-01-11T05:29:45.010Z,3.82
2023-01-11T05:32:14.028Z,3.91
2023-01-11T05:34:41.519Z,4.07
2023-01-11T05:37:09.019Z,3.63
2023-01-11T05:39:36.525Z,3.59
2023-01-11T05:42:04.103Z,3.59
2023-01-11T05:44:48.953Z,3.59
2023-01-11T05:47:18.815Z,3.76
2023-01-11T05:49:46.325Z,3.73
2023-01-11T05:52:13.804Z,4.01
2023-01-11T05:54:41.291Z,4.12
2023-01-11T05:57:11.501Z,4.15
2023-01-11T05:59:38.985Z,3.77
2023-01-11T06:02:06.604Z,3.96
2023-01-11T06:04:35.501Z,3.97
2023-01-11T06:07:03.100Z,3.77
2023-01-11T06:09:30.653Z,3.59
2023-01-11T06:11:58.133Z,3.45
2023-01-11T06:14:25.619Z,3.63
2023-01-11T06:16:53.179Z,3.95
2023-01-11T06:19:20.702Z,3.87
2023-01-11T06:21:49.506Z,4.03
2023-01-11T06:24:17.215Z,3.82
2023-01-11T06:26:44.694Z,3.69
2023-01-11T06:29:12.652Z,3.75
2023-01-11T06:31:40.240Z,3.77
2023-01-11T06:34:07.728Z,3.72
2023-01-11T06:36:37.806Z,3.64
2023-01-11T06:39:06.851Z,3.73
2023-01-11T06:41:34.335Z,3.64
2023-01-11T06:44:01.829Z,3.64
2023-01-11T06:46:29.446Z,3.61
2023-01-11T06:48:56.967Z,3.65
2023-01-11T06:51:24.449Z,3.63
2023-01-11T06:53:51.917Z,3.58
2023-01-11T06:56:20.739Z,3.44
2023-01-11T06:58:48.730Z,3.52
2023-01-11T07:01:17.536Z,3.53
2023-01-11T07:03:45.439Z,3.52
2023-01-11T07:06:13.776Z,3.60
2023-01-11T07:08:42.385Z,3.65
2023-01-11T07:11:10.203Z,3.52
2023-01-11T07:13:39.114Z,3.40
2023-01-11T07:16:06.964Z,3.57
2023-01-11T07:18:34.505Z,3.50
2023-01-11T07:21:02.370Z,3.51
2023-01-11T07:23:29.918Z,3.74
2023-01-11T07:25:57.419Z,3.87
2023-01-11T07:28:24.940Z,3.84
2023-01-11T07:30:58.681Z,3.79
2023-01-11T07:33:26.874Z,3.70
2023-01-11T07:35:54.907Z,3.99
2023-01-11T07:38:22.597Z,3.92
2023-01-11T07:40:50.083Z,3.99
2023-01-11T07:43:18.912Z,4.02
2023-01-11T07:45:49.210Z,4.40
2023-01-11T07:48:21.417Z,4.55
2023-01-11T07:50:49.589Z,4.67
2023-01-11T07:53:18.838Z,4.72
2023-01-11T07:55:47.108Z,5.04
2023-01-11T07:58:15.862Z,4.54
2023-01-11T08:00:43.655Z,4.15
2023-01-11T08:03:11.511Z,3.99
2023-01-11T08:05:40.637Z,4.36
2023-01-11T08:08:08.652Z,4.75
2023-01-11T08:10:36.189Z,4.73
2023-01-11T08:13:21.790Z,4.29
2023-01-11T08:15:49.296Z,4.42
2023-01-11T08:18:17.170Z,4.68
2023-01-11T08:20:47.525Z,4.71
2023-01-11T08:23:15.017Z,4.68
2023-01-11T08:25:42.559Z,4.77
2023-01-11T08:28:11.591Z,4.45
2023-01-11T08:30:39.393Z,4.16
2023-01-11T08:33:06.986Z,4.17
2023-01-11T08:35:39.250Z,3.90
2023-01-11T08:38:08.182Z,3.95
2023-01-11T08:40:35.955Z,3.81
2023-01-11T08:43:03.819Z,3.83
2023-01-11T08:45:31.376Z,3.97
2023-01-11T08:48:00.339Z,3.88
2023-01-11T08:50:28.113Z,3.91
2023-01-11T08:52:55.624Z,3.87
2023-01-11T08:55:24.440Z,3.93
2023-01-11T08:57:51.954Z,4.09
2023-01-11T09:00:20.887Z,4.13
2023-01-11T09:02:48.384Z,4.23
2023-01-11T09:05:18.169Z,4.40
2023-01-11T09:07:46.042Z,4.45
2023-01-11T09:10:13.562Z,4.50
2023-01-11T09:12:42.393Z,4.68
2023-01-11T09:15:10.718Z,4.80
2023-01-11T09:17:38.297Z,4.56
2023-01-11T09:20:06.910Z,4.79
2023-01-11T09:22:34.830Z,4.83
2023-01-11T09:25:02.594Z,4.94
2023-01-11T09:27:30.087Z,5.56
2023-01-11T09:29:58.931Z,5.56
2023-01-11T09:32:26.402Z,5.56
2023-01-11T09:34:57.841Z,5.96
2023-01-11T09:37:25.460Z,5.99
2023-01-11T09:39:53.055Z,5.65
2023-01-11T09:42:32.337Z,5.38
2023-01-11T09:45:08.894Z,5.66
2023-01-11T09:47:40.935Z,5.51
2023-01-11T09:50:14.518Z,5.62
2023-01-11T09:52:45.290Z,5.76
2023-01-11T09:55:19.842Z,5.89
2023-01-11T09:57:55.632Z,6.01
2023-01-11T10:00:33.550Z,6.02
2023-01-11T10:03:23.521Z,5.84
2023-01-11T10:06:00.180Z,5.75
2023-01-11T10:18:25.379Z,6.04
2023-01-11T10:18:26.162Z,6.23
2023-01-11T10:20:35.424Z,6.18
2023-01-11T10:23:09.845Z,6.55
2023-01-11T10:25:46.412Z,6.76
2023-01-11T10:28:22.951Z,7.22
2023-01-11T10:31:08.025Z,7.56
2023-01-11T10:34:09.156Z,7.72
2023-01-11T10:37:05.626Z,7.69
2023-01-11T10:39:59.100Z,7.35
2023-01-11T10:42:29.666Z,7.49
2023-01-11T10:45:03.653Z,7.30
2023-01-11T10:47:39.105Z,7.21
2023-01-11T10:50:18.879Z,7.13
2023-01-11T10:52:53.603Z,7.30
2023-01-11T10:55:28.369Z,7.33
2023-01-11T10:58:06.860Z,7.21
2023-01-11T11:00:44.401Z,7.38
2023-01-11T11:03:38.926Z,7.34
2023-01-11T11:06:15.579Z,7.10
2023-01-11T11:08:49.600Z,7.08
2023-01-11T11:11:22.539Z,7.15
2023-01-11T11:13:59.532Z,7.22
2023-01-11T11:16:50.703Z,7.32
2023-01-11T11:19:22.917Z,7.52
2023-01-11T11:21:52.344Z,7.89
2023-01-11T11:24:27.727Z,7.95
2023-01-11T11:27:04.368Z,7.75
2023-01-11T11:29:32.047Z,7.69
2023-01-11T11:32:00.956Z,7.50
2023-01-11T11:34:30.757Z,7.55
2023-01-11T11:37:01.762Z,7.69
2023-01-11T11:39:31.072Z,7.82
2023-01-11T11:42:06.538Z,8.41
2023-01-11T11:44:34.499Z,8.11
2023-01-11T11:47:03.552Z,8.37
2023-01-11T11:49:32.707Z,8.48
2023-01-11T11:52:03.602Z,8.31
2023-01-11T11:54:34.808Z,7.80
2023-01-11T11:57:16.457Z,7.59
2023-01-11T11:59:47.634Z,7.34
2023-01-11T12:02:24.532Z,6.79
2023-01-11T12:04:52.952Z,6.84
2023-01-11T12:07:25.132Z,6.54
2023-01-11T12:10:00.761Z,6.78
2023-01-11T12:12:29.735Z,6.90
2023-01-11T12:15:17.159Z,6.95
2023-01-11T12:17:44.669Z,7.01
2023-01-11T12:20:28.233Z,7.09
2023-01-11T12:23:15.165Z,7.23
2023-01-11T12:25:52.386Z,7.05
2023-01-11T12:28:31.678Z,7.04
2023-01-11T12:31:07.267Z,6.86
2023-01-11T12:33:44.428Z,6.86
2023-01-11T12:36:21.843Z,6.88
2023-01-11T12:39:02.734Z,7.09
2023-01-11T12:41:52.702Z,6.98
2023-01-11T12:44:33.940Z,6.67
2023-01-11T12:47:20.559Z,6.40
2023-01-11T12:49:58.769Z,6.26
2023-01-11T12:52:50.655Z,6.64
2023-01-11T12:55:31.575Z,6.77
2023-01-11T12:58:08.979Z,7.05
2023-01-11T13:00:56.699Z,7.27
2023-01-11T13:04:04.845Z,7.21
2023-01-11T13:06:40.762Z,7.01
2023-01-11T13:09:17.787Z,7.07
2023-01-11T13:11:58.398Z,7.03
2023-01-11T13:14:52.778Z,6.83
2023-01-11T13:17:29.011Z,6.84
2023-01-11T13:20:09.497Z,6.83
2023-01-11T13:22:41.593Z,6.87
2023-01-11T13:25:17.634Z,6.81
2023-01-11T13:27:48.013Z,6.70
2023-01-11T13:30:17.799Z,6.92
2023-01-11T13:32:51.205Z,6.91
2023-01-11T13:35:21.402Z,7.03
2023-01-11T13:37:55.827Z,6.77
2023-01-11T13:40:27.143Z,6.62
2023-01-11T13:43:00.345Z,6.63
2023-01-11T13:45:31.231Z,6.65
2023-01-11T13:48:07.076Z,6.51
2023-01-11T13:50:40.670Z,6.78
2023-01-11T13:53:16.607Z,7.14
2023-01-11T13:55:55.030Z,7.16
2023-01-11T13:58:29.430Z,7.43
2023-01-11T14:01:02.733Z,7.12
2023-01-11T14:03:34.734Z,6.92
2023-01-11T14:06:18.947Z,6.72
2023-01-11T14:09:10.225Z,6.64
2023-01-11T14:11:45.727Z,6.84
2023-01-11T14:14:29.647Z,6.74
2023-01-11T14:17:09.076Z,6.84
2023-01-11T14:19:44.475Z,6.93
2023-01-11T14:22:21.975Z,6.93
2023-01-11T14:24:57.408Z,6.94
2023-01-11T14:27:56.482Z,7.09
2023-01-11T14:30:40.277Z,7.17
2023-01-11T14:33:56.981Z,7.03
2023-01-11T14:36:49.852Z,7.23
2023-01-11T14:39:54.883Z,7.26
2023-01-11T14:43:01.622Z,7.06
2023-01-11T14:45:55.129Z,7.23
2023-01-11T14:48:30.925Z,7.07
2023-01-11T14:51:30.685Z,7.13
2023-01-11T14:54:06.921Z,7.10
2023-01-11T14:56:49.009Z,6.88
2023-01-11T14:59:34.743Z,7.23
2023-01-11T15:02:28.865Z,7.86
2023-01-11T15:05:34.587Z,7.67
2023-01-11T15:08:25.095Z,7.99
2023-01-11T15:10:58.299Z,8.21
2023-01-11T15:13:28.927Z,7.99
2023-01-11T15:16:27.170Z,8.13
2023-01-11T15:18:56.772Z,7.69
2023-01-11T15:21:26.956Z,7.59
2023-01-11T15:23:58.576Z,7.58
2023-01-11T15:26:27.875Z,7.65
2023-01-11T15:28:57.226Z,7.51
2023-01-11T15:31:34.497Z,7.50
2023-01-11T15:34:17.573Z,7.40
2023-01-11T15:37:05.431Z,7.75
2023-01-11T15:39:41.199Z,7.53
2023-01-11T15:42:37.717Z,7.71
2023-01-11T15:46:01.264Z,7.63
2023-01-11T15:48:39.843Z,7.96
2023-01-11T15:51:26.925Z,7.88
2023-01-11T15:54:15.432Z,7.96
2023-01-11T15:57:33.801Z,7.88
2023-01-11T16:00:23.635Z,8.23
2023-01-11T16:03:18.359Z,8.25
2023-01-11T16:06:12.024Z,7.72
2023-01-11T16:08:51.209Z,7.82
2023-01-11T16:11:28.433Z,8.21
2023-01-11T16:14:13.029Z,8.37
2023-01-11T16:16:43.810Z,8.33
2023-01-11T16:19:17.054Z,8.33
2023-01-11T16:21:49.571Z,8.46
2023-01-11T16:24:20.918Z,8.41
2023-01-11T16:26:53.577Z,8.31
2023-01-11T16:29:24.319Z,8.54
2023-01-11T16:31:53.665Z,8.35
2023-01-11T16:34:21.236Z,8.55
2023-01-11T16:36:49.301Z,8.40
2023-01-11T16:39:22.631Z,8.54
2023-01-11T16:41:55.953Z,8.60
2023-01-11T16:44:34.403Z,8.64
2023-01-11T16:47:08.205Z,8.49
2023-01-11T16:49:35.770Z,8.48
2023-01-11T16:52:47.026Z,8.72
2023-01-11T16:55:21.928Z,8.50
2023-01-11T16:57:54.007Z,8.74
2023-01-11T17:00:27.409Z,8.81
2023-01-11T17:03:02.743Z,8.76
2023-01-11T17:05:30.244Z,8.92
2023-01-11T17:07:57.728Z,9.05
2023-01-11T17:10:28.734Z,8.90
2023-01-11T17:13:46.175Z,9.05
2023-01-11T17:16:15.915Z,9.04
2023-01-11T17:18:44.535Z,9.01
2023-01-11T17:21:19.427Z,9.25
2023-01-11T17:23:48.284Z,9.06
2023-01-11T17:26:21.927Z,8.74
2023-01-11T17:28:52.657Z,8.80
2023-01-11T17:31:24.082Z,8.67
2023-01-11T17:34:01.277Z,8.64
2023-01-11T17:36:29.672Z,8.79
2023-01-11T17:38:58.899Z,8.72
2023-01-11T17:41:46.966Z,8.93
2023-01-11T17:44:35.831Z,9.30
2023-01-11T17:47:07.268Z,9.56
2023-01-11T17:49:36.387Z,9.42
2023-01-11T17:52:20.469Z,9.64
2023-01-11T17:54:48.245Z,9.54
2023-01-11T17:57:18.795Z,9.63
2023-01-11T17:59:46.267Z,9.61
2023-01-11T18:02:15.099Z,9.63
2023-01-11T18:04:43.660Z,9.64
2023-01-11T18:07:17.666Z,9.66
2023-01-11T18:09:47.848Z,9.61
2023-01-11T18:12:20.787Z,9.29
2023-01-11T18:14:52.337Z,9.38
2023-01-11T18:17:36.579Z,9.44
2023-01-11T18:20:25.678Z,9.59
2023-01-11T18:23:03.233Z,9.37
2023-01-11T18:25:34.507Z,9.09
2023-01-11T18:28:30.805Z,8.93
2023-01-11T18:31:01.841Z,8.96
2023-01-11T18:33:33.733Z,8.72
2023-01-11T18:36:03.200Z,9.02
2023-01-11T18:38:32.625Z,9.07
2023-01-11T18:41:24.777Z,9.02
2023-01-11T18:43:53.851Z,9.11
2023-01-11T18:46:21.448Z,8.89
2023-01-11T18:48:49.018Z,8.86
2023-01-11T18:51:18.927Z,8.80
2023-01-11T18:53:46.432Z,9.01
2023-01-11T18:56:16.179Z,8.93
2023-01-11T18:58:43.734Z,9.04
2023-01-11T19:01:12.801Z,9.14
2023-01-11T19:03:41.100Z,8.94
2023-01-11T19:06:12.783Z,8.98
2023-01-11T19:08:40.464Z,9.24
2023-01-11T19:11:08.028Z,8.89
2023-01-11T19:13:35.563Z,9.22
2023-01-11T19:16:03.128Z,8.78
2023-01-11T19:18:47.959Z,8.70
2023-01-11T19:21:15.813Z,9.11
2023-01-11T19:23:43.363Z,9.11
2023-01-11T19:26:10.893Z,9.15
2023-01-11T19:28:38.414Z,9.23
2023-01-11T19:31:07.420Z,9.27
2023-01-11T19:33:35.077Z,9.27
2023-01-11T19:36:08.212Z,9.40
2023-01-11T19:38:36.166Z,9.55
2023-01-11T19:41:05.363Z,9.20
2023-01-11T19:43:32.905Z,9.28
2023-01-11T19:46:01.991Z,9.28
2023-01-11T19:48:30.836Z,9.40
2023-01-11T19:51:02.066Z,9.54
2023-01-11T19:53:31.823Z,9.57
2023-01-11T19:56:01.633Z,9.48
2023-01-11T19:58:29.173Z,9.35
2023-01-11T20:00:56.773Z,9.06
2023-01-11T20:03:24.326Z,8.52
2023-01-11T20:05:51.843Z,8.56
2023-01-11T20:08:19.385Z,8.59
2023-01-11T20:10:50.025Z,8.62
2023-01-11T20:13:17.555Z,8.53
2023-01-11T20:15:45.150Z,8.84
2023-01-11T20:18:12.658Z,8.80
2023-01-11T20:20:40.177Z,8.28
2023-01-11T20:23:07.673Z,8.68
2023-01-11T20:25:35.160Z,8.67
2023-01-11T20:28:04.105Z,8.54
2023-01-11T20:30:31.583Z,8.77
2023-01-11T20:32:59.089Z,8.86
2023-01-11T20:35:26.578Z,8.63
2023-01-11T20:37:54.106Z,8.60
2023-01-11T20:40:21.598Z,9.20
2023-01-11T20:42:49.105Z,9.33
2023-01-11T20:45:18.003Z,9.41
2023-01-11T20:47:46.319Z,9.40
2023-01-11T20:50:13.800Z,9.45
2023-01-11T20:52:41.343Z,9.21
2023-01-11T20:55:10.051Z,9.10
2023-01-11T20:57:37.609Z,9.00
2023-01-11T21:00:07.517Z,9.05
2023-01-11T21:02:36.465Z,9.06
2023-01-11T21:05:04.463Z,8.98
2023-01-11T21:07:32.142Z,9.35
2023-01-11T21:10:00.044Z,9.04
2023-01-11T21:12:27.529Z,8.98
2023-01-11T21:14:55.015Z,8.88
2023-01-11T21:17:22.493Z,8.69
2023-01-11T21:19:51.348Z,8.64
2023-01-11T21:22:18.902Z,8.40
2023-01-11T21:24:48.260Z,8.16
2023-01-11T21:27:15.809Z,8.29
2023-01-11T21:29:43.340Z,8.40
2023-01-11T21:32:10.826Z,8.02
2023-01-11T21:34:38.346Z,8.26
2023-01-11T21:37:07.169Z,8.01
2023-01-11T21:39:34.657Z,8.19
2023-01-11T21:42:03.496Z,8.09
2023-01-11T21:44:33.480Z,8.06
2023-01-11T21:47:01.954Z,8.16
2023-01-11T21:49:29.528Z,8.32
2023-01-11T21:51:57.105Z,8.63
2023-01-11T21:54:26.261Z,8.45
2023-01-11T21:56:53.805Z,8.39
2023-01-11T21:59:21.542Z,8.26
2023-01-11T22:01:49.732Z,8.01
2023-01-11T22:04:19.466Z,7.84
2023-01-11T22:06:51.381Z,7.90
2023-01-11T22:09:19.913Z,7.82
2023-01-11T22:11:49.551Z,8.12
2023-01-11T22:14:17.061Z,8.32
2023-01-11T22:16:44.570Z,8.22
2023-01-11T22:19:12.576Z,8.03
2023-01-11T22:21:40.122Z,7.86
2023-01-11T22:24:10.468Z,7.82
2023-01-11T22:26:38.913Z,7.64
2023-01-11T22:29:18.407Z,7.67
2023-01-11T22:31:47.793Z,7.92
2023-01-11T22:34:15.705Z,7.71
2023-01-11T22:36:43.754Z,7.68
2023-01-11T22:39:11.906Z,7.46
2023-01-11T22:41:40.462Z,7.53
2023-01-11T22:44:10.127Z,7.78
2023-01-11T22:46:37.709Z,7.88
2023-01-11T22:49:05.955Z,7.96
2023-01-11T22:51:33.625Z,7.71
2023-01-11T22:54:01.131Z,7.23
2023-01-11T22:56:29.388Z,6.90
2023-01-11T22:58:58.178Z,6.77
2023-01-11T23:01:28.381Z,6.78
2023-01-11T23:03:56.794Z,6.75
2023-01-11T23:06:26.032Z,7.25
2023-01-11T23:08:54.411Z,7.74
2023-01-11T23:11:41.663Z,7.48
2023-01-11T23:14:11.374Z,7.99
2023-01-11T23:16:41.172Z,8.36
2023-01-11T23:19:09.843Z,7.86
2023-01-11T23:21:40.558Z,7.57
2023-01-11T23:24:09.160Z,7.96
2023-01-11T23:26:36.746Z,7.81
2023-01-11T23:29:05.384Z,7.56
2023-01-11T23:31:33.351Z,7.05
2023-01-11T23:34:04.136Z,7.43
2023-01-11T23:36:33.158Z,7.77
2023-01-11T23:39:00.990Z,7.65
2023-01-11T23:41:46.302Z,7.83
2023-01-11T23:44:15.620Z,7.66
2023-01-11T23:47:00.879Z,7.44
2023-01-11T23:49:30.856Z,7.62
2023-01-11T23:51:58.740Z,7.58
2023-01-11T23:54:27.914Z,7.30
2023-01-11T23:56:55.503Z,7.39
2023-01-11T23:59:23.283Z,7.20
